1983 ELINOR (1983042S11158)


On this page: IBTrACS data - Map and Plots - Positions - Intensities - Original source data

Summary

Start Feb 10
End Mar 4
Basin SP
LMI 115 kt
Sources jtwc_sh
bom
wellington
td9636
neumann
In WMO? Yes
Previous storm 1983 HSK1483 (SI)
Previous in basin 1983 NANO (SP)
Concurrent storms 1983 ELINOR (SP)
1983 NISHA (SP)
1983 NISHA (SP)
1983 OSCAR (SP)
1983 PREMA (SP)
1983 KEN (SI)
1983 PREMA (SP)
Next in basin 1983 NISHA (SP)
Next storm 1983 NISHA (SP)

top of page IBTrACS Data: File Access

top of page HURSAT Data: File Access

Image of storm

top of page Plots:

Map of storm track will not appear if FTP is down
Time series of cyclone Maximum Sustained Wind will not appear if FTP is down
Time series of cyclone Minimum Central Pressure will not appear if FTP is down

top of page Track Data:Position

jtwc_sh bom wellington td9636 neumann
Date Lat Lon Lat Lon Lat Lon Lat Lon Lat Lon
1983-02-10 18:00:00 -10.6 158.0 -10.6 158.0
1983-02-11 00:00:00 -10.7 157.8 -10.7 157.8
1983-02-11 06:00:00 -10.7 157.7 -10.8 157.7
1983-02-11 12:00:00 -10.6 157.7 -10.8 157.5 -10.8 157.5 -10.6 157.7
1983-02-11 18:00:00 -10.8 157.0 -10.8 157.2 -10.8 157.3 -10.8 157.0
1983-02-12 00:00:00 -11.2 156.6 -11.0 157.0 -11.0 157.0 -11.0 157.0 -11.2 156.6
1983-02-12 06:00:00 -11.6 156.6 -11.7 156.7 -11.7 156.6 -11.7 156.7 -11.6 156.6
1983-02-12 12:00:00 -12.1 156.5 -12.6 156.4 -12.4 156.3 -12.6 156.4 -12.1 156.5
1983-02-12 18:00:00 -12.5 156.4 -13.2 156.3 -13.0 156.1 -13.2 156.2 -12.5 156.4
1983-02-13 00:00:00 -13.0 156.2 -13.6 156.1 -13.5 156.0 -13.6 156.1 -13.0 156.2
1983-02-13 06:00:00 -13.7 156.0 -14.0 155.9 -14.1 155.8 -14.0 155.9 -13.7 156.0
1983-02-13 12:00:00 -14.4 155.8 -14.4 155.7 -14.6 155.5 -14.4 155.7 -14.4 155.8
1983-02-13 18:00:00 -14.8 155.3 -15.0 155.4 -15.0 155.1 -14.9 155.2 -14.8 155.3
1983-02-14 00:00:00 -15.2 154.8 -15.3 154.8 -15.3 154.8 -15.3 154.8 -15.2 154.8
1983-02-14 06:00:00 -15.5 154.4 -15.6 154.4 -15.5 154.5 -15.6 154.6 -15.5 154.4
1983-02-14 12:00:00 -15.8 154.4 -15.8 154.6 -15.8 154.5 -15.8 154.6 -15.8 154.4
1983-02-14 18:00:00 -16.1 154.8 -16.0 155.0 -16.2 154.9 -16.1 155.0 -16.1 154.8
1983-02-15 00:00:00 -16.3 155.3 -16.4 155.5 -16.7 155.3 -16.4 155.5 -16.3 155.3
1983-02-15 06:00:00 -16.6 155.8 -16.6 155.9 -17.0 155.5 -16.7 156.0 -16.6 155.8
1983-02-15 12:00:00 -16.9 156.3 -17.1 156.3 -17.3 155.6 -17.1 156.3 -16.9 156.3
1983-02-15 18:00:00 -17.5 156.7 -17.7 156.5 -17.8 156.1 -17.7 156.5 -17.5 156.7
1983-02-16 00:00:00 -18.2 156.4 -18.3 156.3 -18.3 156.3 -18.3 156.3 -18.2 156.4
1983-02-16 06:00:00 -18.6 155.3 -18.7 155.1 -18.6 155.8 -18.5 155.2 -18.6 155.3
1983-02-16 12:00:00 -18.7 154.2 -18.5 153.9 -18.7 154.8 -18.5 153.9 -18.7 154.2
1983-02-16 18:00:00 -18.3 153.2 -18.2 153.0 -18.4 153.6 -18.1 153.0 -18.3 153.2
jtwc_sh bom wellington td9636 neumann
1983-02-17 00:00:00 -17.9 152.3 -17.7 152.2 -18.0 152.4 -17.7 152.2 -17.9 152.3
1983-02-17 06:00:00 -17.7 151.4 -17.5 151.7 -17.6 151.4 -17.5 151.6 -17.7 151.4
1983-02-17 12:00:00 -17.5 150.7 -17.3 151.1 -17.2 150.7 -17.3 151.1 -17.5 150.7
1983-02-17 18:00:00 -17.4 150.1 -17.2 150.7 -17.0 150.3 -17.2 150.7 -17.4 150.1
1983-02-18 00:00:00 -17.2 149.8 -17.0 150.4 -16.8 150.0 -17.0 150.4 -17.2 149.8
1983-02-18 06:00:00 -16.9 149.6 -16.8 150.2 -16.6 149.7 -16.8 150.0 -16.9 149.6
1983-02-18 12:00:00 -16.4 149.4 -16.5 149.7 -16.3 149.5 -16.5 149.7 -16.4 149.4
1983-02-18 18:00:00 -15.9 149.3 -15.9 149.4 -16.0 149.3 -15.9 149.4 -15.9 149.3
1983-02-19 00:00:00 -15.4 149.2 -15.3 149.3 -15.7 149.3 -15.3 149.3 -15.4 149.2
1983-02-19 06:00:00 -14.9 149.2 -15.2 149.6 -15.3 149.5 -15.1 149.4 -14.9 149.2
1983-02-19 12:00:00 -14.6 149.4 -15.0 149.8 -14.9 149.9 -15.0 149.8 -14.6 149.4
1983-02-19 18:00:00 -14.7 150.0 -15.0 150.3 -14.8 150.5 -15.0 150.3 -14.7 150.0
1983-02-20 00:00:00 -15.0 150.7 -15.0 151.0 -14.9 151.3 -15.0 151.0 -15.0 150.7
1983-02-20 06:00:00 -15.4 151.5 -15.0 151.7 -15.2 151.9 -15.0 151.8 -15.4 151.5
1983-02-20 12:00:00 -15.7 152.3 -15.2 152.6 -15.6 152.6 -15.2 152.6 -15.7 152.3
1983-02-20 18:00:00 -15.9 153.3 -15.7 153.5 -16.0 153.4 -15.7 153.4 -15.9 153.3
1983-02-21 00:00:00 -16.0 154.3 -16.1 154.3 -16.2 154.2 -16.1 154.3 -16.0 154.3
1983-02-21 06:00:00 -16.1 155.2 -16.4 155.3 -16.2 155.1 -16.2 155.3 -16.1 155.2
1983-02-21 12:00:00 -16.1 155.9 -16.2 156.2 -16.0 156.0 -16.2 156.2 -16.1 155.9
1983-02-21 18:00:00 -16.0 156.5 -16.1 156.9 -15.9 156.7 -16.1 156.8 -16.0 156.5
1983-02-22 00:00:00 -15.8 157.0 -15.9 157.3 -15.8 157.3 -15.9 157.3 -15.8 157.0
1983-02-22 06:00:00 -15.8 157.5 -15.8 157.8 -15.8 157.8 -15.8 157.7 -15.8 157.5
1983-02-22 12:00:00 -15.8 157.8 -15.8 158.0 -15.9 158.0 -15.8 158.0 -15.8 157.8
1983-02-22 18:00:00 -15.9 157.8 -15.9 157.9 -16.0 158.0 -15.9 158.0 -15.9 157.8
jtwc_sh bom wellington td9636 neumann
1983-02-23 00:00:00 -16.0 157.7 -16.0 157.8 -16.1 157.8 -16.0 157.8 -16.0 157.7
1983-02-23 06:00:00 -16.1 157.5 -16.2 157.6 -16.2 157.5 -16.1 157.6 -16.1 157.5
1983-02-23 12:00:00 -16.1 157.2 -16.2 157.3 -16.3 157.2 -16.2 157.3 -16.1 157.2
1983-02-23 18:00:00 -16.1 156.8 -16.2 156.9 -16.3 156.9 -16.2 156.9 -16.1 156.8
1983-02-24 00:00:00 -16.0 156.3 -16.1 156.5 -16.3 156.5 -16.1 156.5 -16.0 156.3
1983-02-24 06:00:00 -15.9 156.0 -16.0 156.0 -16.1 156.1 -15.9 156.1 -15.9 156.0
1983-02-24 12:00:00 -15.8 155.6 -15.8 155.6 -15.9 155.6 -15.8 155.6 -15.8 155.6
1983-02-24 18:00:00 -15.8 155.1 -15.8 155.2 -15.9 155.1 -15.8 155.1 -15.8 155.1
1983-02-25 00:00:00 -15.9 154.5 -15.8 154.6 -15.9 154.5 -15.8 154.6 -15.9 154.5
1983-02-25 06:00:00 -15.9 153.8 -16.0 154.0 -16.0 153.9 -15.9 153.9 -15.9 153.8
1983-02-25 12:00:00 -16.0 153.2 -16.1 153.2 -16.1 153.3 -16.1 153.2 -16.0 153.2
1983-02-25 18:00:00 -16.0 152.6 -16.1 152.6 -16.2 152.7 -16.2 152.6 -16.0 152.6
1983-02-26 00:00:00 -16.0 152.1 -16.2 152.1 -16.3 152.1 -16.2 152.1 -16.0 152.1
1983-02-26 06:00:00 -16.0 151.7 -16.3 151.7 -16.3 151.7 -16.2 151.6 -16.0 151.7
1983-02-26 12:00:00 -16.1 151.3 -16.2 151.2 -16.2 151.4 -16.2 151.2 -16.1 151.3
1983-02-26 18:00:00 -16.1 150.8 -16.2 151.0 -16.1 151.0 -16.1 150.9 -16.1 150.8
1983-02-27 00:00:00 -16.1 150.7 -16.1 150.8 -16.0 150.7 -16.1 150.8 -16.1 150.7
1983-02-27 06:00:00 -16.2 151.0 -16.1 151.0 -16.0 150.7 -16.1 150.9 -16.2 151.0
1983-02-27 12:00:00 -16.3 151.3 -16.2 151.2 -16.2 151.0 -16.2 151.2 -16.3 151.3
1983-02-27 18:00:00 -16.5 151.6 -16.5 151.5 -16.5 151.4 -16.5 151.5 -16.5 151.6
1983-02-28 00:00:00 -16.8 151.9 -16.8 151.8 -16.8 151.8 -16.8 151.8 -16.8 151.9
1983-02-28 06:00:00 -17.1 152.2 -17.1 152.0 -17.1 152.1 -17.1 152.0 -17.1 152.2
1983-02-28 12:00:00 -17.4 152.4 -17.5 152.1 -17.5 152.3 -17.5 152.1 -17.4 152.4
1983-02-28 18:00:00 -17.8 152.4 -18.0 152.2 -18.0 152.5 -18.0 152.2 -17.8 152.4
jtwc_sh bom wellington td9636 neumann
1983-03-01 00:00:00 -18.3 152.3 -18.5 152.1 -18.5 152.5 -18.5 152.1 -18.3 152.3
1983-03-01 06:00:00 -18.7 152.2 -18.9 152.0 -18.9 152.3 -18.9 152.0 -18.7 152.2
1983-03-01 12:00:00 -19.2 152.1 -19.3 151.7 -19.2 151.9 -19.3 151.7 -19.2 152.1
1983-03-01 18:00:00 -19.6 151.8 -19.8 151.2 -19.6 151.6 -19.8 151.2 -19.6 151.8
1983-03-02 00:00:00 -20.1 151.4 -20.4 150.8 -20.0 151.4 -20.4 150.8 -20.1 151.4
1983-03-02 06:00:00 -20.8 151.2 -21.1 150.9 -20.5 151.3 -21.1 150.8 -20.8 151.2
1983-03-02 12:00:00 -21.6 151.1 -21.6 150.8 -21.0 151.3 -21.6 150.8 -21.6 151.1
1983-03-02 18:00:00 -22.3 151.0 -21.8 150.7 -21.5 151.1 -21.9 150.6 -22.3 151.0
1983-03-03 00:00:00 -22.8 150.9 -22.0 150.5 -21.9 150.9 -22.0 150.5 -22.8 150.9
1983-03-03 06:00:00 -22.5 150.8 -21.9 150.5 -22.0 150.7 -21.9 150.6 -22.5 150.8
1983-03-03 12:00:00 -21.9 150.6 -21.8 150.6 -22.0 150.5 -21.8 150.6 -21.9 150.6
1983-03-03 18:00:00 -21.9 150.1 -21.8 149.9 -21.8 150.1 -21.9 150.1
1983-03-04 00:00:00 -21.9 149.2 -21.8 149.3 -21.8 149.2 -21.9 149.2
1983-03-04 06:00:00 -21.7 148.3 -21.7 148.3
1983-03-04 12:00:00 -21.5 147.2 -21.5 147.2

top of pageTrack Data:Intensity

jtwc_sh bom wellington td9636 neumann
Date Wind Pres Wind Pres Wind Pres Wind Pres Wind Pres
1983-02-10 18:00:00 1007.
1983-02-11 00:00:00 1008.
1983-02-11 06:00:00 1005.
1983-02-11 12:00:00 20. 1005. 20.
1983-02-11 18:00:00 20. 1005. 20.
1983-02-12 00:00:00 20. 1006. 30. 997. 20.
1983-02-12 06:00:00 20. 1002. 30. 997. 25.
1983-02-12 12:00:00 25. 1002. 30. 997. 25.
1983-02-12 18:00:00 25. 1002. 30. 997. 25.
1983-02-13 00:00:00 30. 1002. 40. 990. 25.
1983-02-13 06:00:00 35. 1000. 40. 990. 30.
1983-02-13 12:00:00 45. 998. 45. 987. 25. 35.
1983-02-13 18:00:00 50. 992. 45. 987. 25. 45.
1983-02-14 00:00:00 55. 988. 50. 985. 34. 50.
1983-02-14 06:00:00 60. 978. 50. 985. 34. 60.
1983-02-14 12:00:00 70. 970. 55. 980. 29. 70.
1983-02-14 18:00:00 75. 968. 55. 980. 29. 75.
1983-02-15 00:00:00 75. 966. 60. 975. 35. 75.
1983-02-15 06:00:00 75. 966. 60. 975. 35. 75.
1983-02-15 12:00:00 70. 966. 55. 980. 40. 75.
1983-02-15 18:00:00 70. 970. 55. 980. 40. 70.
1983-02-16 00:00:00 65. 974. 50. 985. 30. 65.
1983-02-16 06:00:00 60. 976. 50. 985. 30. 65.
1983-02-16 12:00:00 55. 978. 45. 987. 36. 60.
1983-02-16 18:00:00 50. 980. 45. 987. 36. 60.
jtwc_sh bom wellington td9636 neumann
1983-02-17 00:00:00 50. 982. 40. 990. 37. 55.
1983-02-17 06:00:00 50. 984. 40. 990. 37. 55.
1983-02-17 12:00:00 50. 986. 40. 990. 31. 50.
1983-02-17 18:00:00 50. 987. 40. 990. 31. 50.
1983-02-18 00:00:00 50. 988. 40. 990. 30. 50.
1983-02-18 06:00:00 50. 990. 40. 990. 30. 45.
1983-02-18 12:00:00 50. 990. 40. 990. 35. 45.
1983-02-18 18:00:00 50. 990. 40. 990. 35. 45.
1983-02-19 00:00:00 45. 990. 40. 990. 40. 45.
1983-02-19 06:00:00 45. 990. 40. 990. 40. 45.
1983-02-19 12:00:00 40. 989. 40. 990. 30. 50.
1983-02-19 18:00:00 40. 988. 40. 990. 30. 50.
1983-02-20 00:00:00 40. 987. 40. 990. 30. 50.
1983-02-20 06:00:00 40. 985. 40. 990. 30. 55.
1983-02-20 12:00:00 45. 983. 45. 987. 40. 55.
1983-02-20 18:00:00 45. 981. 45. 987. 40. 60.
1983-02-21 00:00:00 50. 979. 55. 980. 30. 60.
1983-02-21 06:00:00 55. 976. 55. 980. 30. 65.
1983-02-21 12:00:00 60. 972. 65. 970. 34. 70.
1983-02-21 18:00:00 65. 968. 65. 970. 34. 75.
1983-02-22 00:00:00 75. 962. 70. 965. 28. 80.
1983-02-22 06:00:00 80. 956. 70. 965. 28. 85.
1983-02-22 12:00:00 90. 950. 80. 955. 29. 95.
1983-02-22 18:00:00 95. 948. 80. 955. 29. 95.
jtwc_sh bom wellington td9636 neumann
1983-02-23 00:00:00 100. 947. 85. 945. 21. 95.
1983-02-23 06:00:00 100. 947. 85. 945. 21. 95.
1983-02-23 12:00:00 100. 947. 90. 940. 26. 95.
1983-02-23 18:00:00 95. 951. 90. 940. 26. 95.
1983-02-24 00:00:00 95. 955. 95. 930. 27. 90.
1983-02-24 06:00:00 95. 955. 95. 930. 27. 90.
1983-02-24 12:00:00 95. 951. 100. 925. 30. 95.
1983-02-24 18:00:00 95. 945. 100. 925. 30. 105. 943.
1983-02-25 00:00:00 95. 939. 100. 925. 30. 105.
1983-02-25 06:00:00 95. 937. 100. 925. 30. 105.
1983-02-25 12:00:00 100. 936. 100. 925. 35. 105.
1983-02-25 18:00:00 100. 936. 100. 925. 35. 105.
1983-02-26 00:00:00 100. 935. 90. 940. 45. 110.
1983-02-26 06:00:00 100. 936. 90. 940. 45. 105.
1983-02-26 12:00:00 100. 940. 80. 955. 40. 105.
1983-02-26 18:00:00 100. 946. 80. 955. 40. 100.
1983-02-27 00:00:00 95. 954. 75. 960. 48. 90.
1983-02-27 06:00:00 90. 958. 75. 960. 48. 85.
1983-02-27 12:00:00 85. 962. 70. 965. 40. 80.
1983-02-27 18:00:00 80. 966. 70. 965. 40. 75.
1983-02-28 00:00:00 80. 970. 65. 970. 30. 70.
1983-02-28 06:00:00 80. 974. 65. 970. 30. 65.
1983-02-28 12:00:00 80. 976. 60. 975. 56. 65.
1983-02-28 18:00:00 80. 977. 60. 975. 56. 65.
jtwc_sh bom wellington td9636 neumann
1983-03-01 00:00:00 80. 978. 50. 985. 50. 60.
1983-03-01 06:00:00 75. 979. 50. 985. 50. 60.
1983-03-01 12:00:00 70. 980. 45. 987. 35. 60.
1983-03-01 18:00:00 70. 981. 45. 987. 35. 60.
1983-03-02 00:00:00 70. 981. 40. 990. 45. 60.
1983-03-02 06:00:00 70. 980. 40. 990. 45. 60.
1983-03-02 12:00:00 70. 980. 40. 990. 115. 60.
1983-03-02 18:00:00 70. 990. 40. 990. 115. 45.
1983-03-03 00:00:00 70. 995. 35. 995. 75. 40.
1983-03-03 06:00:00 70. 996. 35. 995. 75. 35.
1983-03-03 12:00:00 65. 997. 35. 995. 49. 35.
1983-03-03 18:00:00 55. 999. 49. 30.
1983-03-04 00:00:00 45. 1000. 30. 30.
1983-03-04 06:00:00 35. 25.
1983-03-04 12:00:00 30. 25.

top of page Links to source data

Source Source file Format
jtwc_sh bsh121983.txt ATCF
bom Newcyclonedatabase-08repair.csv:Line=12760:ELINOR CSV file (from Excel file)
wellington TC_BT_1967_2006.csv:Line=1855:ELINOR Text table
td9636 cons_worldwide_trop_cyclone_18710101-19891231-006:Line=11633 TD 9636
neumann tracks.sh:Storm=668:ELINOR:BSH1283:JTWC&BM723&QL823 HURDAT